createdAt,value
2023-01-25T00:01:40.941Z,17.53
2023-01-25T00:04:07.258Z,17.70
2023-01-25T00:06:34.667Z,17.20
2023-01-25T00:09:01.152Z,17.83
2023-01-25T00:11:27.477Z,17.40
2023-01-25T00:13:54.358Z,17.37
2023-01-25T00:16:20.914Z,17.03
2023-01-25T00:18:48.060Z,18.20
2023-01-25T00:21:18.742Z,18.97
2023-01-25T00:23:45.126Z,19.40
2023-01-25T00:26:12.794Z,19.03
2023-01-25T00:28:39.342Z,17.53
2023-01-25T00:31:06.915Z,17.73
2023-01-25T00:33:56.739Z,18.37
2023-01-25T00:36:27.314Z,18.87
2023-01-25T00:38:54.453Z,16.90
2023-01-25T00:41:20.769Z,17.73
2023-01-25T00:43:47.114Z,16.50
2023-01-25T00:46:17.824Z,19.33
2023-01-25T00:48:44.347Z,19.33
2023-01-25T00:51:10.755Z,18.83
2023-01-25T00:53:37.365Z,18.20
2023-01-25T00:56:04.113Z,17.10
2023-01-25T00:58:30.481Z,17.47
2023-01-25T01:00:57.334Z,18.87
2023-01-25T01:03:23.998Z,18.97
2023-01-25T01:06:01.376Z,18.00
2023-01-25T01:08:27.775Z,17.03
2023-01-25T01:11:04.190Z,18.57
2023-01-25T01:13:30.950Z,18.37
2023-01-25T01:16:02.669Z,18.40
2023-01-25T01:18:29.656Z,18.00
2023-01-25T01:20:56.183Z,20.10
2023-01-25T01:23:22.461Z,18.47
2023-01-25T01:25:48.789Z,18.20
2023-01-25T01:28:15.124Z,18.63
2023-01-25T01:30:41.406Z,18.63
2023-01-25T01:33:08.011Z,18.10
2023-01-25T01:35:34.347Z,18.77
2023-01-25T01:38:00.809Z,18.07
2023-01-25T01:40:27.208Z,18.70
2023-01-25T01:43:16.583Z,18.23
2023-01-25T01:45:51.933Z,19.80
2023-01-25T01:48:30.460Z,18.37
2023-01-25T01:50:58.979Z,21.27
2023-01-25T01:53:26.328Z,20.13
2023-01-25T01:55:55.209Z,20.63
2023-01-25T01:58:21.691Z,21.60
2023-01-25T02:00:48.229Z,18.57
2023-01-25T02:03:16.846Z,19.93
2023-01-25T02:05:50.281Z,19.70
2023-01-25T02:08:16.864Z,18.27
2023-01-25T02:10:43.973Z,18.37
2023-01-25T02:13:10.575Z,19.00
2023-01-25T02:15:39.942Z,18.20
2023-01-25T02:18:06.279Z,19.00
2023-01-25T02:20:38.835Z,18.67
2023-01-25T02:23:12.014Z,20.13
2023-01-25T02:25:38.481Z,16.60
2023-01-25T02:28:07.613Z,17.07
2023-01-25T02:30:35.043Z,18.80
2023-01-25T02:33:01.570Z,19.33
2023-01-25T02:35:38.585Z,17.83
2023-01-25T02:38:05.337Z,19.73
2023-01-25T02:40:32.847Z,18.80
2023-01-25T02:42:59.233Z,18.87
2023-01-25T02:45:27.495Z,19.57
2023-01-25T02:47:53.824Z,16.77
2023-01-25T02:50:20.142Z,18.87
2023-01-25T02:52:46.456Z,16.87
2023-01-25T02:55:12.787Z,16.00
2023-01-25T02:57:39.124Z,20.10
2023-01-25T03:00:05.913Z,17.13
2023-01-25T03:02:32.280Z,17.37
2023-01-25T03:04:58.701Z,18.27
2023-01-25T03:07:25.057Z,18.40
2023-01-25T03:09:51.412Z,17.23
2023-01-25T03:12:17.701Z,18.20
2023-01-25T03:14:44.586Z,20.13
2023-01-25T03:17:11.275Z,18.63
2023-01-25T03:19:37.580Z,18.67
2023-01-25T03:22:05.845Z,18.33
2023-01-25T03:24:32.242Z,17.93
2023-01-25T03:27:14.368Z,19.27
2023-01-25T03:29:41.540Z,15.80
2023-01-25T03:32:08.194Z,19.77
2023-01-25T03:34:34.623Z,20.07
2023-01-25T03:37:00.898Z,16.50
2023-01-25T03:39:27.924Z,17.43
2023-01-25T03:41:54.336Z,16.93
2023-01-25T03:44:20.627Z,17.87
2023-01-25T03:46:46.982Z,19.30
2023-01-25T03:49:13.356Z,17.73
2023-01-25T03:51:39.702Z,19.03
2023-01-25T03:54:08.327Z,19.20
2023-01-25T03:56:34.791Z,18.37
2023-01-25T03:59:01.401Z,19.07
2023-01-25T04:01:27.723Z,19.03
2023-01-25T04:03:54.047Z,19.13
2023-01-25T04:06:20.363Z,19.23
2023-01-25T04:08:46.699Z,17.87
2023-01-25T04:11:13.047Z,18.03
2023-01-25T04:13:39.514Z,20.10
2023-01-25T04:16:06.958Z,20.77
2023-01-25T04:18:33.334Z,19.73
2023-01-25T04:20:59.887Z,20.63
2023-01-25T04:23:26.478Z,18.97
2023-01-25T04:25:57.037Z,19.00
2023-01-25T04:28:23.393Z,17.13
2023-01-25T04:30:49.779Z,17.60
2023-01-25T04:33:16.373Z,17.97
2023-01-25T04:35:43.415Z,18.23
2023-01-25T04:38:10.487Z,17.27
2023-01-25T04:40:36.859Z,18.37
2023-01-25T04:43:03.256Z,16.23
2023-01-25T04:45:29.643Z,18.70
2023-01-25T04:48:00.882Z,17.10
2023-01-25T04:50:27.836Z,18.33
2023-01-25T04:52:54.497Z,17.70
2023-01-25T04:55:20.909Z,17.37
2023-01-25T04:57:53.029Z,15.33
2023-01-25T05:00:19.768Z,19.13
2023-01-25T05:02:46.599Z,16.70
2023-01-25T05:05:13.124Z,18.10
2023-01-25T05:07:39.549Z,16.80
2023-01-25T05:10:06.600Z,17.53
2023-01-25T05:12:32.901Z,18.63
2023-01-25T05:14:59.227Z,17.90
2023-01-25T05:17:25.917Z,18.47
2023-01-25T05:19:52.235Z,16.17
2023-01-25T05:22:20.754Z,18.17
2023-01-25T05:24:47.723Z,19.23
2023-01-25T05:27:15.570Z,19.07
2023-01-25T05:29:45.182Z,19.27
2023-01-25T05:32:14.591Z,18.07
2023-01-25T05:34:41.321Z,18.87
2023-01-25T05:37:08.619Z,19.50
2023-01-25T05:39:37.203Z,19.17
2023-01-25T05:42:03.641Z,20.27
2023-01-25T05:44:29.928Z,19.90
2023-01-25T05:46:56.304Z,17.83
2023-01-25T05:49:22.678Z,19.27
2023-01-25T05:51:50.074Z,16.67
2023-01-25T05:54:17.934Z,19.80
2023-01-25T05:56:44.312Z,19.73
2023-01-25T05:59:11.820Z,18.77
2023-01-25T06:01:39.157Z,19.23
2023-01-25T06:04:05.489Z,20.50
2023-01-25T06:06:31.809Z,20.50
2023-01-25T06:08:58.169Z,19.40
2023-01-25T06:11:24.588Z,20.20
2023-01-25T06:13:51.292Z,20.63
2023-01-25T06:16:18.287Z,19.63
2023-01-25T06:18:44.796Z,19.90
2023-01-25T06:21:11.111Z,18.57
2023-01-25T06:23:37.473Z,17.37
2023-01-25T06:26:05.142Z,16.60
2023-01-25T06:28:32.200Z,20.47
2023-01-25T06:31:08.549Z,19.00
2023-01-25T06:33:35.176Z,20.73
2023-01-25T06:36:05.714Z,16.83
2023-01-25T06:38:32.182Z,17.83
2023-01-25T06:40:59.261Z,19.63
2023-01-25T06:43:25.596Z,17.87
2023-01-25T06:45:51.919Z,18.40
2023-01-25T06:48:18.254Z,18.93
2023-01-25T06:50:44.549Z,18.37
2023-01-25T06:53:11.039Z,18.93
2023-01-25T06:55:37.504Z,17.77
2023-01-25T06:58:03.809Z,18.80
2023-01-25T07:00:30.229Z,17.30
2023-01-25T07:02:56.607Z,19.47
2023-01-25T07:05:24.051Z,18.67
2023-01-25T07:07:50.361Z,17.83
2023-01-25T07:10:16.891Z,19.60
2023-01-25T07:12:43.223Z,17.97
2023-01-25T07:15:10.196Z,19.03
2023-01-25T07:17:36.891Z,18.03
2023-01-25T07:20:03.613Z,18.23
2023-01-25T07:22:30.098Z,18.60
2023-01-25T07:24:57.831Z,19.97
2023-01-25T07:27:24.203Z,21.13
2023-01-25T07:29:52.152Z,17.70
2023-01-25T07:32:18.528Z,18.03
2023-01-25T07:34:44.868Z,18.83
2023-01-25T07:37:11.299Z,18.60
2023-01-25T07:39:37.735Z,19.87
2023-01-25T07:42:04.165Z,20.40
2023-01-25T07:44:30.765Z,20.70
2023-01-25T07:46:58.074Z,21.47
2023-01-25T07:49:24.497Z,20.73
2023-01-25T07:51:50.839Z,21.70
2023-01-25T07:54:17.296Z,21.13
2023-01-25T07:56:43.642Z,20.40
2023-01-25T07:59:10.560Z,22.17
2023-01-25T08:01:37.170Z,22.83
2023-01-25T08:04:04.767Z,21.30
2023-01-25T08:06:36.275Z,20.83
2023-01-25T08:09:04.679Z,22.83
2023-01-25T08:11:31.401Z,21.17
2023-01-25T08:13:57.974Z,20.53
2023-01-25T08:16:27.531Z,23.13
2023-01-25T08:18:55.252Z,19.80
2023-01-25T08:21:24.242Z,23.77
2023-01-25T08:23:51.052Z,21.63
2023-01-25T08:26:18.122Z,21.93
2023-01-25T08:28:44.513Z,23.47
2023-01-25T08:31:12.128Z,25.10
2023-01-25T08:33:38.703Z,20.77
2023-01-25T08:36:06.060Z,24.23
2023-01-25T08:38:32.436Z,21.80
2023-01-25T08:41:07.692Z,22.13
2023-01-25T08:43:34.319Z,21.80
2023-01-25T08:46:00.711Z,22.30
2023-01-25T08:48:27.036Z,20.73
2023-01-25T08:50:53.408Z,20.83
2023-01-25T08:53:20.042Z,21.97
2023-01-25T08:55:46.438Z,20.40
2023-01-25T08:58:13.839Z,19.50
2023-01-25T09:00:41.115Z,22.60
2023-01-25T09:03:07.722Z,21.20
2023-01-25T09:05:34.858Z,21.07
2023-01-25T09:08:01.946Z,19.73
2023-01-25T09:10:28.330Z,21.93
2023-01-25T09:12:54.741Z,24.30
2023-01-25T09:15:22.701Z,22.57
2023-01-25T09:17:55.583Z,20.80
2023-01-25T09:20:22.292Z,23.63
2023-01-25T09:22:48.712Z,25.07
2023-01-25T09:25:15.538Z,23.47
2023-01-25T09:27:42.161Z,23.47
2023-01-25T09:30:18.277Z,23.07
2023-01-25T09:32:45.169Z,21.73
2023-01-25T09:35:11.598Z,22.47
2023-01-25T09:37:38.944Z,25.40
2023-01-25T09:40:05.938Z,22.43
2023-01-25T09:42:32.830Z,23.73
2023-01-25T09:45:03.973Z,21.40
2023-01-25T09:47:30.598Z,24.93
2023-01-25T09:50:15.237Z,23.40
2023-01-25T09:53:05.250Z,25.03
2023-01-25T09:55:32.541Z,22.73
2023-01-25T09:58:00.555Z,24.27
2023-01-25T10:00:30.662Z,23.63
2023-01-25T10:02:59.826Z,22.33
2023-01-25T10:05:28.229Z,23.17
2023-01-25T10:08:00.647Z,22.97
2023-01-25T10:10:27.230Z,25.17
2023-01-25T10:12:53.612Z,22.83
2023-01-25T10:15:22.135Z,26.23
2023-01-25T10:17:58.213Z,24.90
2023-01-25T10:20:43.098Z,23.67
2023-01-25T10:23:22.937Z,23.80
2023-01-25T10:25:49.216Z,20.03
2023-01-25T10:28:30.677Z,26.13
2023-01-25T10:31:02.221Z,22.60
2023-01-25T10:33:29.545Z,21.87
2023-01-25T10:35:58.507Z,24.93
2023-01-25T10:38:28.145Z,23.93
2023-01-25T10:41:06.766Z,22.00
2023-01-25T10:43:33.257Z,24.20
2023-01-25T10:45:59.643Z,23.77
2023-01-25T10:48:36.575Z,22.50
2023-01-25T10:51:02.918Z,22.57
2023-01-25T10:53:36.661Z,22.90
2023-01-25T10:56:09.282Z,23.00
2023-01-25T10:58:37.196Z,22.60
2023-01-25T11:01:08.790Z,25.00
2023-01-25T11:03:39.948Z,25.03
2023-01-25T11:06:07.571Z,21.20
2023-01-25T11:08:35.491Z,22.93
2023-01-25T11:11:13.845Z,23.43
2023-01-25T11:13:41.119Z,23.40
2023-01-25T11:16:13.758Z,20.43
2023-01-25T11:18:48.870Z,22.47
2023-01-25T11:21:25.879Z,23.17
2023-01-25T11:24:01.427Z,20.63
2023-01-25T11:26:28.076Z,24.03
2023-01-25T11:29:13.348Z,23.57
2023-01-25T11:31:46.057Z,21.73
2023-01-25T11:34:14.113Z,23.67
2023-01-25T11:36:46.620Z,24.33
2023-01-25T11:39:23.490Z,23.17
2023-01-25T11:41:56.003Z,22.50
2023-01-25T11:44:28.535Z,21.17
2023-01-25T11:47:12.144Z,21.30
2023-01-25T11:49:43.984Z,22.90
2023-01-25T11:52:22.592Z,24.53
2023-01-25T11:54:53.102Z,19.70
2023-01-25T11:57:40.381Z,26.30
2023-01-25T12:00:20.971Z,22.53
2023-01-25T12:02:59.360Z,22.90
2023-01-25T12:05:36.294Z,21.43
2023-01-25T12:08:22.413Z,21.10
2023-01-25T12:11:13.676Z,23.40
2023-01-25T12:13:48.274Z,23.53
2023-01-25T12:16:33.645Z,21.47
2023-01-25T12:19:15.352Z,21.03
2023-01-25T12:22:00.115Z,20.40
2023-01-25T12:24:29.570Z,24.60
2023-01-25T12:27:01.092Z,23.97
2023-01-25T12:29:39.598Z,20.63
2023-01-25T12:32:08.980Z,20.63
2023-01-25T12:34:37.071Z,22.50
2023-01-25T12:37:06.804Z,20.33
2023-01-25T12:39:37.779Z,22.60
2023-01-25T12:42:18.810Z,20.97
2023-01-25T12:45:05.407Z,20.60
2023-01-25T12:47:40.639Z,20.50
2023-01-25T12:50:07.186Z,21.57
2023-01-25T12:52:35.085Z,22.20
2023-01-25T12:55:05.028Z,20.43
2023-01-25T12:57:50.249Z,23.60
2023-01-25T13:00:33.514Z,19.93
2023-01-25T13:03:18.557Z,20.20
2023-01-25T13:05:51.249Z,20.40
2023-01-25T13:08:31.113Z,21.87
2023-01-25T13:11:20.618Z,20.97
2023-01-25T13:13:48.065Z,19.43
2023-01-25T13:16:25.251Z,20.27
2023-01-25T13:18:51.767Z,20.50
2023-01-25T13:21:36.656Z,18.93
2023-01-25T13:24:14.676Z,18.97
2023-01-25T13:26:53.395Z,17.43
2023-01-25T13:29:30.223Z,19.83
2023-01-25T13:31:58.991Z,19.43
2023-01-25T13:34:34.881Z,21.60
2023-01-25T13:37:17.892Z,20.83
2023-01-25T13:39:45.926Z,20.63
2023-01-25T13:42:13.294Z,19.80
2023-01-25T13:44:44.606Z,17.70
2023-01-25T13:47:12.388Z,20.30
2023-01-25T13:49:56.948Z,19.47
2023-01-25T13:52:24.295Z,21.63
2023-01-25T13:54:53.818Z,20.30
2023-01-25T13:57:22.482Z,20.23
2023-01-25T13:59:52.261Z,21.57
2023-01-25T14:02:19.986Z,22.77
2023-01-25T14:04:47.517Z,18.77
2023-01-25T14:07:18.387Z,21.90
2023-01-25T14:09:45.000Z,19.90
2023-01-25T14:12:11.739Z,19.20
2023-01-25T14:14:38.236Z,19.60
2023-01-25T14:17:16.244Z,20.27
2023-01-25T14:19:49.718Z,18.23
2023-01-25T14:22:24.967Z,20.97
2023-01-25T14:25:07.300Z,20.43
2023-01-25T14:27:52.414Z,20.60
2023-01-25T14:30:21.234Z,19.47
2023-01-25T14:32:48.527Z,18.70
2023-01-25T14:35:42.629Z,18.30
2023-01-25T14:38:29.611Z,19.07
2023-01-25T14:40:57.642Z,17.27
2023-01-25T14:43:24.373Z,22.63
2023-01-25T14:45:50.742Z,70.83
2023-01-25T14:48:35.268Z,20.13
2023-01-25T14:51:07.075Z,21.10
2023-01-25T14:53:33.443Z,19.27
2023-01-25T14:55:59.911Z,21.40
2023-01-25T14:58:29.042Z,19.00
2023-01-25T15:00:57.014Z,21.20
2023-01-25T15:03:23.449Z,20.47
2023-01-25T15:05:49.857Z,22.67
2023-01-25T15:08:26.911Z,19.97
2023-01-25T15:10:57.071Z,18.70
2023-01-25T15:13:27.297Z,19.73
2023-01-25T15:15:53.698Z,19.53
2023-01-25T15:18:38.610Z,19.60
2023-01-25T15:21:05.340Z,19.50
2023-01-25T15:23:31.673Z,19.70
2023-01-25T15:25:59.213Z,21.03
2023-01-25T15:28:26.994Z,21.03
2023-01-25T15:30:53.393Z,21.07
2023-01-25T15:33:21.690Z,20.17
2023-01-25T15:35:48.676Z,19.93
2023-01-25T15:38:15.171Z,17.47
2023-01-25T15:40:42.416Z,19.77
2023-01-25T15:43:12.829Z,18.40
2023-01-25T15:45:40.311Z,18.87
2023-01-25T15:48:10.627Z,21.20
2023-01-25T15:50:37.011Z,19.17
2023-01-25T15:53:03.343Z,19.03
2023-01-25T15:55:29.772Z,21.73
2023-01-25T15:57:57.305Z,22.07
2023-01-25T16:00:23.841Z,18.93
2023-01-25T16:02:50.199Z,21.97
2023-01-25T16:05:16.689Z,20.57
2023-01-25T16:07:43.875Z,17.90
2023-01-25T16:10:28.188Z,20.40
2023-01-25T16:12:54.607Z,21.40
2023-01-25T16:15:21.139Z,19.57
2023-01-25T16:17:47.575Z,19.57
2023-01-25T16:20:18.134Z,20.23
2023-01-25T16:22:44.501Z,16.70
2023-01-25T16:25:11.091Z,18.93
2023-01-25T16:27:37.467Z,20.60
2023-01-25T16:30:04.426Z,19.67
2023-01-25T16:32:30.723Z,19.93
2023-01-25T16:34:57.037Z,17.67
2023-01-25T16:37:23.367Z,19.83
2023-01-25T16:39:51.860Z,20.07
2023-01-25T16:42:19.083Z,19.77
2023-01-25T16:44:48.092Z,20.47
2023-01-25T16:47:14.615Z,20.87
2023-01-25T16:49:41.001Z,19.30
2023-01-25T16:52:07.350Z,20.33
2023-01-25T16:54:33.712Z,23.30
2023-01-25T16:57:05.826Z,18.57
2023-01-25T16:59:35.200Z,16.77
2023-01-25T17:02:01.537Z,19.40
2023-01-25T17:04:27.909Z,21.63
2023-01-25T17:06:54.265Z,21.93
2023-01-25T17:09:23.995Z,16.87
2023-01-25T17:11:51.378Z,20.13
2023-01-25T17:14:19.072Z,18.80
2023-01-25T17:16:48.028Z,20.93
2023-01-25T17:19:17.332Z,19.43
2023-01-25T17:21:43.958Z,20.87
2023-01-25T17:24:21.460Z,18.70
2023-01-25T17:26:48.162Z,21.70
2023-01-25T17:29:14.587Z,21.17
2023-01-25T17:31:42.249Z,20.60
2023-01-25T17:34:10.985Z,22.73
2023-01-25T17:36:37.312Z,23.20
2023-01-25T17:39:04.990Z,23.27
2023-01-25T17:41:31.944Z,20.10
2023-01-25T17:43:58.550Z,19.13
2023-01-25T17:46:26.187Z,21.93
2023-01-25T17:48:53.305Z,18.53
2023-01-25T17:51:19.810Z,25.37
2023-01-25T17:53:46.127Z,22.17
2023-01-25T17:56:12.714Z,23.67
2023-01-25T17:58:39.780Z,23.97
2023-01-25T18:01:13.781Z,18.60
2023-01-25T18:03:40.659Z,22.53
2023-01-25T18:06:09.450Z,21.07
2023-01-25T18:08:42.467Z,23.33
2023-01-25T18:11:09.321Z,20.33
2023-01-25T18:13:39.034Z,22.87
2023-01-25T18:16:06.394Z,23.83
2023-01-25T18:18:32.745Z,23.10
2023-01-25T18:21:05.677Z,20.87
2023-01-25T18:23:32.000Z,22.23
2023-01-25T18:25:58.674Z,24.77
2023-01-25T18:28:25.714Z,25.20
2023-01-25T18:30:53.537Z,19.37
2023-01-25T18:33:19.989Z,24.13
2023-01-25T18:35:48.341Z,27.87
2023-01-25T18:38:15.514Z,26.63
2023-01-25T18:40:43.727Z,26.03
2023-01-25T18:43:13.855Z,23.57
2023-01-25T18:45:40.178Z,28.03
2023-01-25T18:48:06.898Z,25.57
2023-01-25T18:50:33.430Z,27.60
2023-01-25T18:52:59.842Z,28.43
2023-01-25T18:55:27.636Z,23.37
2023-01-25T18:57:54.101Z,28.20
2023-01-25T19:00:20.496Z,25.57
2023-01-25T19:02:46.863Z,26.60
2023-01-25T19:05:14.264Z,28.00
2023-01-25T19:07:41.873Z,23.33
2023-01-25T19:10:08.563Z,26.93
2023-01-25T19:12:34.970Z,30.60
2023-01-25T19:15:01.393Z,30.33
2023-01-25T19:17:27.741Z,29.27
2023-01-25T19:19:54.079Z,28.20
2023-01-25T19:22:20.442Z,30.60
2023-01-25T19:24:46.853Z,28.50
2023-01-25T19:27:13.179Z,26.77
2023-01-25T19:29:39.570Z,30.83
2023-01-25T19:32:06.405Z,26.90
2023-01-25T19:34:33.526Z,29.70
2023-01-25T19:36:59.925Z,29.50
2023-01-25T19:39:26.266Z,29.03
2023-01-25T19:41:53.245Z,32.07
2023-01-25T19:44:20.406Z,26.53
2023-01-25T19:46:46.785Z,28.07
2023-01-25T19:49:14.411Z,30.90
2023-01-25T19:51:45.477Z,28.70
2023-01-25T19:54:15.674Z,29.73
2023-01-25T19:56:43.021Z,32.93
2023-01-25T19:59:28.941Z,32.20
2023-01-25T20:01:55.356Z,28.83
2023-01-25T20:04:23.138Z,31.03
2023-01-25T20:06:50.122Z,28.77
2023-01-25T20:09:17.472Z,32.67
2023-01-25T20:11:44.187Z,33.30
2023-01-25T20:14:11.467Z,31.07
2023-01-25T20:16:37.987Z,28.90
2023-01-25T20:19:04.307Z,31.63
2023-01-25T20:21:31.386Z,27.73
2023-01-25T20:24:00.300Z,30.53
2023-01-25T20:26:28.824Z,29.17
2023-01-25T20:28:56.670Z,33.27
2023-01-25T20:31:33.926Z,32.53
2023-01-25T20:34:04.483Z,30.90
2023-01-25T20:36:31.594Z,29.17
2023-01-25T20:38:58.083Z,30.50
2023-01-25T20:41:24.826Z,29.93
2023-01-25T20:43:52.411Z,32.70
2023-01-25T20:46:19.659Z,30.87
2023-01-25T20:48:46.364Z,32.80
2023-01-25T20:51:14.482Z,31.10
2023-01-25T20:53:41.824Z,33.33
2023-01-25T20:56:08.671Z,35.27
2023-01-25T20:58:35.000Z,30.63
2023-01-25T21:01:01.465Z,29.87
2023-01-25T21:03:29.979Z,30.30
2023-01-25T21:05:57.788Z,29.87
2023-01-25T21:08:25.168Z,28.87
2023-01-25T21:10:56.249Z,29.87
2023-01-25T21:13:23.045Z,30.20
2023-01-25T21:15:59.387Z,29.50
2023-01-25T21:18:39.527Z,28.30
2023-01-25T21:21:13.097Z,29.13
2023-01-25T21:23:41.240Z,32.10
2023-01-25T21:26:08.088Z,27.33
2023-01-25T21:28:34.799Z,27.30
2023-01-25T21:31:07.820Z,29.37
2023-01-25T21:33:34.214Z,28.10
2023-01-25T21:36:01.051Z,28.30
2023-01-25T21:38:27.398Z,30.93
2023-01-25T21:40:59.306Z,25.80
2023-01-25T21:43:25.661Z,22.63
2023-01-25T21:46:10.749Z,26.50
2023-01-25T21:48:55.678Z,24.07
2023-01-25T21:51:37.088Z,24.63
2023-01-25T21:54:03.510Z,24.77
2023-01-25T21:56:29.893Z,21.17
2023-01-25T21:58:56.354Z,23.03
2023-01-25T22:01:23.217Z,22.03
2023-01-25T22:03:50.218Z,22.37
2023-01-25T22:06:17.144Z,20.03
2023-01-25T22:08:44.430Z,22.17
2023-01-25T22:11:10.936Z,19.07
2023-01-25T22:13:37.963Z,19.30
2023-01-25T22:16:05.044Z,19.07
2023-01-25T22:18:34.233Z,19.13
2023-01-25T22:21:03.054Z,17.73
2023-01-25T22:23:30.067Z,15.30
2023-01-25T22:26:06.930Z,14.43
2023-01-25T22:28:35.242Z,15.80
2023-01-25T22:31:01.676Z,12.93
2023-01-25T22:33:28.128Z,14.30
2023-01-25T22:35:54.572Z,14.27
2023-01-25T22:38:20.975Z,14.57
2023-01-25T22:40:47.295Z,12.37
2023-01-25T22:43:13.591Z,12.97
2023-01-25T22:45:39.898Z,12.57
2023-01-25T22:48:06.368Z,12.73
2023-01-25T22:50:32.781Z,12.33
2023-01-25T22:52:59.438Z,12.87
2023-01-25T22:55:25.760Z,11.40
2023-01-25T22:57:52.053Z,11.23
2023-01-25T23:00:18.573Z,11.40
2023-01-25T23:02:44.964Z,9.97
2023-01-25T23:05:11.368Z,11.33
2023-01-25T23:07:37.740Z,10.70
2023-01-25T23:10:04.361Z,10.60
2023-01-25T23:12:30.854Z,9.53
2023-01-25T23:14:59.119Z,10.10
2023-01-25T23:17:44.011Z,9.63
2023-01-25T23:20:11.602Z,10.33
2023-01-25T23:22:38.182Z,9.53
2023-01-25T23:25:06.149Z,9.07
2023-01-25T23:27:32.481Z,10.83
2023-01-25T23:29:58.777Z,9.90
2023-01-25T23:32:25.163Z,9.13
2023-01-25T23:34:54.308Z,9.50
2023-01-25T23:37:21.894Z,10.43
2023-01-25T23:39:51.503Z,8.67
2023-01-25T23:42:17.959Z,10.37
2023-01-25T23:44:44.295Z,10.20
2023-01-25T23:47:10.628Z,8.97
2023-01-25T23:49:36.949Z,10.33
2023-01-25T23:52:04.420Z,10.27
2023-01-25T23:54:30.841Z,9.90
2023-01-25T23:56:57.231Z,8.50
2023-01-25T23:59:23.541Z,9.10
